Airfield :
LOGIN :

Register | Disclaimer

   EN    FR    IT 

 










Legend :    VFR   Marginal VFR   IFR   Intensive IFR   Very Intensive IFR
Visi :
Ceiling :
>= 8 km
>= 3000ft
5 to 8 km
1000 to 3000 ft
1500m to 5 km
500 to 1000 ft
800 to 1500m
200 to 500 ft
< 800m
< 200 ft
Symbols :   Thunderstorms  Fog  Heavy snow  Heavy precipitations  Wind > 20 kt
SIGMETs :     Misc.  Thunderstorms  Icing  Turbulence  Mountain Waves  Volcanic Ashes






- Airport Elevation : 203 ft
- IATA code : XMJ


LFBM - Mont-De-Marsan

CURRENT METAR :
  • 221800Z AUTO 07008KT 6000 -RA BKN014 OVC019 10/09 Q1021 BECMG 4000 RA BKN008 OVC015

EXPIRED METARs :
  • 221730Z AUTO 07008KT 9999 +DZ BKN017 OVC023 11/09 Q1021 BECMG 4000 RA BKN008 OVC015
  • 221700Z AUTO 02004KT 9999 BKN027 OVC033 10/08 Q1021 BECMG 09010KT 4000 RA BKN008 OVC015
  • 221630Z AUTO 02003KT 9999 FEW027 OVC034 11/08 Q1021 BECMG 09010KT 4000 RA BKN008 OVC015
  • 221600Z AUTO 03002KT 9999 BKN021 BKN027 OVC035 11/08 Q1022 BECMG 09010KT
  • 221530Z AUTO 07004KT 9999 OVC020 11/07 Q1022 NOSIG

TAF TAF LFBM
Valid from the 22 at 15:00 until the 23 at 15:00 UTC


221400Z 2215/2315 09010KT 9999 BKN020 OVC025
BECMG 2218/2220 4000 RA BKN008 OVC015
BECMG 2223/2302 20005KT 9999 NSW
TEMPO 2300/2315 VRB03KT BKN003



MET'MAP, your aeronautical weather chart ! - Copyright ORBIFLY December 2007 - Disclaimer

ORBIFLY MET'MAP TEAM :

Programming & Development : Alexandra Zaïnal
Concept & original design : Baudouin d'Aumeries
Assistance for programming : Marc-Olivier Méhu
Technical & hardware support : Manuel Goepfert

Contact : metmap@orbifly.com




SOURCES & CREDITS :

   NOAA